This is the latest recevied weather packets stored in our database for station/object CE7LGA-10. If no packets are shown the sender has not sent any weather packets the latest 10 day(s).
| Time | Temp. | Humidity | Pressure | Rain* | Wind** | Luminosity | Snow |
|---|---|---|---|---|---|---|---|
| 1788034104 | 24.44° C | 52% | 999.5 hPa | - | - | - | - |
| 1788033203 | 24.44° C | 53% | 999.4 hPa | - | - | - | - |
| 1788032303 | 24.44° C | 53% | 999.3 hPa | - | - | - | - |
| 1788031403 | 24.44° C | 53% | 998.8 hPa | - | - | - | - |
| 1788030502 | 24.44° C | 52% | 998.7 hPa | - | - | - | - |
| 1788029602 | 25° C | 52% | 998.8 hPa | - | - | - | - |
| 1788028702 | 25.56° C | 50% | 998.7 hPa | - | - | - | - |
| 1788027802 | 26.11° C | 51% | 998.8 hPa | - | - | - | - |
| 1788026902 | 23.89° C | 57% | 998.8 hPa | - | - | - | - |
| 1788026002 | 23.33° C | 58% | 998.9 hPa | - | - | - | - |
| 1788025102 | 22.78° C | 60% | 999.1 hPa | - | - | - | - |
| 1788024202 | 21.67° C | 64% | 999.1 hPa | - | - | - | - |
| 1788023302 | 21.67° C | 63% | 999.1 hPa | - | - | - | - |
| 1788022401 | 20° C | 63% | 999 hPa | - | - | - | - |
| 1788021504 | 18.89° C | 62% | 998.8 hPa | - | - | - | - |
| 1788020604 | 18.33° C | 65% | 998.9 hPa | - | - | - | - |
| 1788019704 | 16.67° C | 69% | 998.9 hPa | - | - | - | - |
| 1788018804 | 16.11° C | 69% | 998.7 hPa | - | - | - | - |
| 1788017903 | 15.56° C | 70% | 998.5 hPa | - | - | - | - |
| 1788017003 | 15° C | 68% | 998.3 hPa | - | - | - | - |
| 1788016103 | 15° C | 68% | 998.3 hPa | - | - | - | - |
| 1788015203 | 15° C | 69% | 998.3 hPa | - | - | - | - |
| 1788014303 | 15° C | 68% | 998.4 hPa | - | - | - | - |
| 1788013403 | 15° C | 68% | 998.2 hPa | - | - | - | - |
| 1788012503 | 15° C | 69% | 998.3 hPa | - | - | - | - |
* Rain since midnight (hover to see other rain measurements)
** Current wind speed in m/s (hover to see current wind gust speed)